Elberta, UT

11:22 AM MST on January 25, 2015 (GMT -0700)
West Desert Airpark | Change Station
CLOSE
Current Station
Personal Weather Station
Location: Fairfield, UT
Elevation: 4888 ft
Nearby Weather Stations

Elev 4888 ft 40.24 °N, 112.09 °W | Updated 1 second ago

Partly Cloudy
Partly Cloudy
41.7 °F
Feels Like 42 °F
N
0.0
Wind Variable Wind from SE
Gusts 3.0 mph

Today
High -- | Low -- °F
--% Chance of Precip.
Yesterday
High -- | Low -- °F
Precip. -- in
7:42 AM 5:38 PM
Waxing Crescent, 34% visible
Pressure 30.50 in
Visibility 10.0 miles
Clouds Few 5500 ft
Scattered Clouds 12000 ft
Windchill 42 °F
Dew Point 28 °F
Humidity 59%
Rainfall 0.00 in
Snow Depth Not available.
UV 1.3 out of 12
Pollen .10 out of 12
Air Quality Not available.
Flu Activity Not available.
METAR KPVU 251755Z VRB04KT 10SM FEW055 SCT120 03/M04 A3050

More Conditions Fewer Conditions

Pressure 30.50 in
Visibility 10.0 miles
Clouds Few 5500 ft
Scattered Clouds 12000 ft
Windchill 42 °F
Dew Point 28 °F
Humidity 59%
Rainfall 0.00 in
Snow Depth Not available.
UV 1.3 out of 12
Pollen .10 out of 12
Air Quality Not available.
Flu Activity Not available.
METAR KPVU 251755Z VRB04KT 10SM FEW055 SCT120 03/M04 A3050

More Conditions Fewer Conditions

10-Day Weather Forecast

Almanac

Astronomy

Jan. 25, 2015 Rise Set
Actual Time
Civil Twilight
Nautical Twilight
Astronomical Twilight
Moon
Length of Visible Light
Length of Day
Tomorrow will be .
, % of the Moon is Illuminated

Today's Extremes

State Highs State Lows

Community

WunderPhotos

Upload Photos

1,790,012 photos uploaded!

WunderBlogs® & News

Nearby

Air Quality

  Air Quality AQ Index Pollutant
Not available.

Snow Depth

Station Depth Elevation

Earthquake Activity

City Distance Mag. Time & Date
Minimum magnitude displayed is 2.5.

Coastal Water Temperatures

Place Temperature

Nearby Weather Stations